»·PEaware :: N149CD KSBA-KVNY

N149CD :: KSBA-KVNY

FLIGHT INFORMATION

Flight Status: Arrived
Operator: Privately registered:
United States
More flights under this callsign
Pilot: Nathan E. (30132)
Aircraft: CIRRUS SR-22
(SR22)
More flights by this aircraft type
Origin: KSBA Santa Barbara Mun
United States
Destination: KVNY Van Nuys
United States
More flights between these airports :: More routes between these airports
Route: KWANG CMA CMA072 GINNA
File this flight plan on PilotEdge
Remarks: TEC route SBAP2
Altitude:
(Current/Filed)
5,000ft
Speed:
(Current/Filed)
170kts
Departed: 14-Feb-21 08:24 PM
Arrived: 14-Feb-21 09:05 PM
Distance/Time
Traveled:
68nm/0:41
Distance/Time
To Go:
Arrived

Flight Plot

Page will automatically refresh every two minutes.


Map Options




Map Legend


Flown Route
Filed Route
Departure Airport
Arrival Airport
Navaid (VOR, NDB)
Fix

Horizontal Profiles

Position Reports

Time Latitude Longitude Heading Altitude Ground
Speed
14-Feb-21 19:58 34.432568 -119.835090 71 13ft 0kts
14-Feb-21 19:59 34.432568 -119.835090 71 13ft 0kts
14-Feb-21 20:00 34.432568 -119.835090 71 13ft 0kts
14-Feb-21 20:01 34.432568 -119.835090 71 13ft 0kts
14-Feb-21 20:02 34.432568 -119.835090 71 13ft 0kts
14-Feb-21 20:03 34.432568 -119.835090 71 13ft 0kts
14-Feb-21 20:04 34.432568 -119.835090 71 13ft 0kts
14-Feb-21 20:05 34.432568 -119.835090 71 13ft 0kts
14-Feb-21 20:06 34.432568 -119.835090 71 13ft 0kts
14-Feb-21 20:07 34.432568 -119.835090 71 13ft 0kts
14-Feb-21 20:08 34.432568 -119.835090 71 13ft 0kts
14-Feb-21 20:09 34.432568 -119.835090 71 13ft 0kts
14-Feb-21 20:10 34.432568 -119.835090 71 13ft 0kts
14-Feb-21 20:11 34.432568 -119.835090 71 13ft 0kts
14-Feb-21 20:12 34.432568 -119.835090 71 13ft 0kts
14-Feb-21 20:13 34.432568 -119.835090 71 13ft 0kts
14-Feb-21 20:14 34.432866 -119.834939 215 13ft 11kts
14-Feb-21 20:15 34.429947 -119.835316 179 10ft 11kts
14-Feb-21 20:16 34.428836 -119.834430 262 10ft 0kts
14-Feb-21 20:17 34.428836 -119.834430 262 10ft 0kts
14-Feb-21 20:18 34.428836 -119.834430 262 10ft 0kts
14-Feb-21 20:19 34.428836 -119.834431 262 10ft 0kts
14-Feb-21 20:20 34.428836 -119.834430 262 10ft 0kts
14-Feb-21 20:21 34.428836 -119.834430 262 10ft 0kts
14-Feb-21 20:22 34.428614 -119.834927 190 10ft 6kts
14-Feb-21 20:23 34.427616 -119.851236 267 329ft 106kts
14-Feb-21 20:24 34.426712 -119.891297 246 1676ft 122kts
14-Feb-21 20:25 34.397041 -119.888962 151 2892ft 124kts
14-Feb-21 20:26 34.365672 -119.869849 151 3963ft 126kts
14-Feb-21 20:27 34.333966 -119.850332 144 4928ft 128kts
14-Feb-21 20:28 34.325982 -119.802069 97 5011ft 167kts
14-Feb-21 20:29 34.318056 -119.746359 99 4996ft 164kts
14-Feb-21 20:30 34.309685 -119.693069 99 4998ft 159kts
14-Feb-21 20:31 34.301322 -119.640656 99 4998ft 157kts
14-Feb-21 20:32 34.292988 -119.588673 99 4999ft 156kts
14-Feb-21 20:33 34.284662 -119.536898 99 4999ft 156kts
14-Feb-21 20:34 34.276310 -119.485107 99 4999ft 156kts
14-Feb-21 20:35 34.267920 -119.433231 99 4999ft 156kts
14-Feb-21 20:36 34.259548 -119.381609 99 4999ft 156kts
14-Feb-21 20:37 34.251161 -119.330042 100 4999ft 156kts
14-Feb-21 20:38 34.242744 -119.278434 100 5000ft 156kts
14-Feb-21 20:39 34.234292 -119.226752 100 4999ft 156kts
14-Feb-21 20:40 34.225809 -119.175022 100 4999ft 156kts
14-Feb-21 20:41 34.241864 -119.128498 59 5318ft 144kts
14-Feb-21 20:42 34.260612 -119.088234 59 5998ft 137kts
14-Feb-21 20:43 34.281933 -119.042367 59 6001ft 163kts
14-Feb-21 20:44 34.303571 -118.995818 59 5998ft 155kts
14-Feb-21 20:45 34.324653 -118.950420 59 5999ft 154kts
14-Feb-21 20:46 34.345686 -118.905066 59 5999ft 154kts
14-Feb-21 20:47 34.364447 -118.858519 66 6000ft 154kts
14-Feb-21 20:48 34.380758 -118.810555 66 5999ft 154kts
14-Feb-21 20:49 34.397097 -118.762420 66 5999ft 154kts
14-Feb-21 20:50 34.413328 -118.714530 66 5999ft 154kts
14-Feb-21 20:51 34.429329 -118.667245 66 5988ft 141kts
14-Feb-21 20:52 34.443317 -118.625861 66 5992ft 126kts
14-Feb-21 20:53 34.456131 -118.587909 66 5997ft 120kts
14-Feb-21 20:54 34.468978 -118.549804 66 5986ft 114kts
14-Feb-21 20:56 34.472163 -118.512930 145 5853ft 117kts
14-Feb-21 20:57 34.439875 -118.511564 176 5287ft 120kts
14-Feb-21 20:58 34.406934 -118.508884 175 4790ft 118kts
14-Feb-21 20:59 34.374552 -118.506045 174 4274ft 112kts
14-Feb-21 21:00 34.342602 -118.502993 175 3734ft 115kts
14-Feb-21 21:01 34.310518 -118.499901 174 3033ft 118kts
14-Feb-21 21:02 34.277983 -118.496805 175 2273ft 111kts
14-Feb-21 21:03 34.249247 -118.494092 174 1658ft 98kts
14-Feb-21 21:04 34.223998 -118.491690 175 1024ft 85kts
14-Feb-21 21:05 34.207895 -118.490197 175 804ft 18kts
14-Feb-21 21:06 34.206578 -118.491026 265 804ft 8kts
14-Feb-21 21:07 34.206286 -118.492526 177 804ft 0kts
14-Feb-21 21:08 34.206286 -118.492526 177 804ft 0kts

Navigation Log

Ident Type
Flight plan parsing failed, navigation log unavailable